Time;durP1;ratioP1;P1;durP2;ratioP2;P2;SDS_P1;SDS_P2;PMS_P1;PMS_P2;Temp;Humidity;BMP_temperature;BMP_pressure;BME280_temperature;BME280_humidity;BME280_pressure;Samples;Min_cycle;Max_cycle;Signal;HPM_P1;HPM_P2
2024/01/15 00:01:34;;;;;;;18.30;3.70;;;3.70;99.90;;;;;;4882774;29;20040;-77
2024/01/15 00:04:00;;;;;;;20.17;3.58;;;3.70;99.90;;;;;;4915034;29;20108;-77
2024/01/15 00:06:26;;;;;;;17.77;2.80;;;3.70;99.90;;;;;;4897995;29;20496;-76
2024/01/15 00:08:52;;;;;;;27.60;5.47;;;3.70;99.90;;;;;;4915356;29;20044;-75
2024/01/15 00:11:18;;;;;;;21.52;2.25;;;3.60;99.90;;;;;;4915232;29;20449;-76
2024/01/15 00:13:44;;;;;;;20.13;3.45;;;3.50;99.90;;;;;;4914585;29;20044;-81
2024/01/15 00:16:10;;;;;;;14.85;2.67;;;3.50;99.90;;;;;;4915016;29;20111;-73
2024/01/15 00:18:36;;;;;;;21.52;4.38;;;3.50;99.90;;;;;;4898349;29;20121;-76
2024/01/15 00:21:02;;;;;;;28.75;4.43;;;3.50;99.90;;;;;;4915194;29;20501;-78
2024/01/15 00:23:27;;;;;;;17.55;2.67;;;3.60;99.90;;;;;;4914912;29;20058;-80
2024/01/15 00:25:53;;;;;;;27.50;4.75;;;3.70;99.90;;;;;;4915266;29;20485;-75
2024/01/15 00:28:19;;;;;;;32.00;4.35;;;3.70;99.90;;;;;;4915080;29;20108;-81
2024/01/15 00:30:44;;;;;;;14.02;2.15;;;3.80;99.90;;;;;;4914625;29;20048;-83
2024/01/15 00:33:12;;;;;;;13.75;2.65;;;3.80;99.90;;;;;;4898072;29;20055;-83
2024/01/15 00:35:38;;;;;;;15.50;2.05;;;3.70;99.90;;;;;;4915041;29;20060;-78
2024/01/15 00:38:03;;;;;;;6.63;1.90;;;3.70;99.90;;;;;;4914985;29;20067;-82
2024/01/15 00:40:29;;;;;;;13.43;2.40;;;3.70;99.90;;;;;;4915004;29;20138;-75
2024/01/15 00:42:55;;;;;;;14.55;3.35;;;3.60;99.90;;;;;;4915246;29;20092;-83
2024/01/15 00:45:20;;;;;;;13.13;2.50;;;3.60;99.90;;;;;;4914984;29;20051;-73
2024/01/15 00:47:46;;;;;;;14.45;2.75;;;3.50;99.90;;;;;;4897867;29;20098;-74
2024/01/15 00:50:12;;;;;;;12.50;3.00;;;3.50;99.90;;;;;;4914319;29;20092;-78
2024/01/15 00:52:38;;;;;;;23.17;3.13;;;3.50;99.90;;;;;;4897735;29;20072;-79
2024/01/15 00:55:04;;;;;;;27.77;4.68;;;3.50;99.90;;;;;;4897722;29;20066;-74
2024/01/15 00:57:30;;;;;;;10.27;2.25;;;3.60;99.90;;;;;;4914658;29;20144;-78
2024/01/15 00:59:56;;;;;;;14.30;2.17;;;3.70;99.90;;;;;;4914792;29;20495;-83
2024/01/15 01:02:21;;;;;;;18.70;2.58;;;3.80;99.90;;;;;;4914966;29;20055;-75
2024/01/15 01:04:47;;;;;;;20.20;2.15;;;3.80;99.90;;;;;;4914201;29;20067;-82
2024/01/15 01:07:13;;;;;;;51.83;6.82;;;3.90;99.90;;;;;;4915038;29;20056;-79
2024/01/15 01:09:39;;;;;;;18.23;4.32;;;3.90;99.90;;;;;;4897940;29;20052;-84
2024/01/15 01:12:04;;;;;;;14.13;3.53;;;4.00;99.90;;;;;;4897678;29;20056;-80
2024/01/15 01:14:30;;;;;;;17.38;3.50;;;4.00;99.90;;;;;;4914706;29;20048;-78
2024/01/15 01:16:56;;;;;;;17.02;3.75;;;4.10;99.90;;;;;;4914558;29;20052;-84
2024/01/15 01:19:21;;;;;;;16.60;3.63;;;4.20;99.90;;;;;;4914778;29;20051;-83
2024/01/15 01:21:47;;;;;;;23.55;4.88;;;4.20;99.90;;;;;;4914974;29;20087;-76
2024/01/15 01:24:13;;;;;;;22.88;3.60;;;4.20;99.90;;;;;;4914379;29;20060;-77
2024/01/15 01:26:38;;;;;;;18.90;2.78;;;4.30;99.90;;;;;;4917691;29;20066;-82
2024/01/15 01:29:04;;;;;;;23.08;3.22;;;4.30;99.90;;;;;;4918392;29;20584;-72
2024/01/15 01:31:30;;;;;;;32.67;4.70;;;4.30;99.90;;;;;;4900906;29;20072;-75
2024/01/15 01:33:55;;;;;;;21.65;3.97;;;4.30;99.90;;;;;;4885917;29;20060;-79
2024/01/15 01:36:21;;;;;;;19.77;3.92;;;4.30;99.90;;;;;;4900912;29;20416;-84
2024/01/15 01:38:47;;;;;;;32.28;4.95;;;4.30;99.90;;;;;;4918321;29;20056;-76
2024/01/15 01:41:12;;;;;;;25.80;4.38;;;4.40;99.90;;;;;;4917923;29;20104;-77
2024/01/15 01:43:38;;;;;;;24.08;5.28;;;4.40;99.90;;;;;;4917875;29;20051;-79
2024/01/15 01:46:05;;;;;;;19.23;3.30;;;4.30;99.90;;;;;;4918090;29;20190;-74
2024/01/15 01:48:31;;;;;;;19.30;3.55;;;4.30;99.90;;;;;;4918394;29;20052;-83
2024/01/15 01:50:59;;;;;;;19.75;3.30;;;4.30;99.90;;;;;;4918309;29;20433;-83
2024/01/15 01:53:28;;;;;;;24.90;3.42;;;4.30;99.90;;;;;;4901663;29;20052;-79
2024/01/15 01:55:56;;;;;;;21.52;4.07;;;4.40;99.90;;;;;;4919178;29;20090;-80
2024/01/15 01:58:21;;;;;;;28.05;4.53;;;4.40;99.90;;;;;;4901065;29;20416;-77
2024/01/15 02:00:47;;;;;;;22.17;4.07;;;4.40;99.90;;;;;;4918679;29;20048;-76
2024/01/15 02:03:13;;;;;;;15.48;2.50;;;4.40;99.90;;;;;;4917941;29;20431;-84
2024/01/15 02:05:40;;;;;;;11.63;2.00;;;4.40;99.90;;;;;;4917856;29;20135;-82
2024/01/15 02:08:06;;;;;;;9.82;1.02;;;4.30;99.90;;;;;;4917890;29;20059;-84
2024/01/15 02:10:32;;;;;;;8.45;1.20;;;4.20;99.90;;;;;;4901797;29;20449;-83
2024/01/15 02:12:58;;;;;;;4.05;1.30;;;4.20;99.90;;;;;;4900187;29;20075;-78
2024/01/15 02:15:24;;;;;;;11.30;2.50;;;4.10;99.90;;;;;;4900473;29;20044;-83
2024/01/15 02:18:03;;;;;;;9.25;1.98;;;4.00;99.90;;;;;;4917003;29;20523;-82
2024/01/15 02:20:29;;;;;;;9.75;2.70;;;4.00;99.90;;;;;;4917543;29;20056;-79
2024/01/15 02:23:09;;;;;;;12.43;1.90;;;3.90;99.90;;;;;;4900196;29;20500;-77
2024/01/15 02:25:37;;;;;;;10.55;1.38;;;3.90;99.90;;;;;;4921318;29;20048;-83
2024/01/15 02:28:04;;;;;;;16.73;2.85;;;3.80;99.90;;;;;;4918053;29;20052;-82
2024/01/15 02:30:31;;;;;;;13.80;1.70;;;3.70;99.90;;;;;;4917622;29;20114;-81
2024/01/15 02:32:56;;;;;;;14.32;2.28;;;3.70;99.90;;;;;;4917496;29;20052;-83
2024/01/15 02:35:22;;;;;;;17.10;2.85;;;3.60;99.90;;;;;;4917666;29;20179;-82
2024/01/15 02:37:48;;;;;;;15.55;2.65;;;3.70;99.90;;;;;;4900871;29;20064;-77
2024/01/15 02:40:13;;;;;;;18.48;3.63;;;3.70;99.90;;;;;;4921091;29;20138;-84
2024/01/15 02:42:39;;;;;;;19.55;3.38;;;3.70;99.90;;;;;;4917891;29;20528;-80
2024/01/15 02:45:05;;;;;;;21.88;4.28;;;3.80;99.90;;;;;;4886910;29;20052;-74
2024/01/15 02:47:30;;;;;;;27.70;3.90;;;3.80;99.90;;;;;;4900351;29;20059;-78
2024/01/15 02:49:56;;;;;;;19.90;3.10;;;3.80;99.90;;;;;;4925376;29;20052;-78
2024/01/15 02:52:22;;;;;;;27.65;3.78;;;3.90;99.90;;;;;;4933648;29;20107;-72
2024/01/15 02:54:47;;;;;;;29.63;6.45;;;3.90;99.90;;;;;;4916711;29;20056;-80
2024/01/15 02:57:13;;;;;;;25.40;5.00;;;4.00;99.90;;;;;;4911418;29;20092;-76
2024/01/15 02:59:39;;;;;;;26.30;4.70;;;4.10;99.90;;;;;;4920063;29;20044;-78
2024/01/15 03:02:04;;;;;;;27.83;4.50;;;4.10;99.90;;;;;;4936856;29;20040;-72
2024/01/15 03:04:30;;;;;;;24.98;4.90;;;4.20;99.90;;;;;;4930430;29;20067;-75
2024/01/15 03:06:56;;;;;;;23.25;3.55;;;4.10;99.90;;;;;;4929960;29;20055;-79
2024/01/15 03:09:21;;;;;;;20.83;3.70;;;4.20;99.90;;;;;;4926660;29;20044;-75
2024/01/15 03:11:48;;;;;;;22.25;3.50;;;4.10;99.90;;;;;;4908854;29;20056;-77
2024/01/15 03:14:14;;;;;;;38.17;5.85;;;4.10;99.90;;;;;;4886197;29;20056;-75
2024/01/15 03:16:40;;;;;;;17.45;4.18;;;4.20;99.90;;;;;;4887729;29;20159;-73
2024/01/15 03:19:06;;;;;;;14.13;2.30;;;4.20;99.90;;;;;;4883668;29;20081;-73
2024/01/15 03:21:31;;;;;;;15.23;2.67;;;4.20;99.90;;;;;;4916479;29;20052;-74
2024/01/15 03:23:57;;;;;;;14.18;2.95;;;4.20;99.90;;;;;;4916718;29;20056;-75
2024/01/15 03:26:24;;;;;;;14.25;3.28;;;4.20;99.90;;;;;;4883655;29;20055;-74
2024/01/15 03:28:49;;;;;;;16.30;3.83;;;4.20;99.90;;;;;;4916220;29;20052;-80
2024/01/15 03:31:15;;;;;;;15.70;3.08;;;4.20;99.90;;;;;;4916737;29;20115;-80
2024/01/15 03:33:40;;;;;;;16.67;2.67;;;4.20;99.90;;;;;;4900394;29;20062;-79
2024/01/15 03:36:07;;;;;;;10.35;2.28;;;4.30;99.90;;;;;;4899780;29;20505;-74
2024/01/15 03:38:32;;;;;;;11.30;1.50;;;4.30;99.90;;;;;;4917293;29;20054;-74
2024/01/15 03:40:58;;;;;;;9.77;1.67;;;4.20;99.90;;;;;;4885074;29;20056;-77
2024/01/15 03:43:24;;;;;;;9.57;1.65;;;4.10;99.90;;;;;;4918729;29;20052;-74
2024/01/15 03:45:49;;;;;;;11.98;2.85;;;4.10;99.90;;;;;;4900747;29;20516;-78
2024/01/15 03:48:15;;;;;;;10.43;2.10;;;4.10;99.90;;;;;;4917624;29;20048;-78
2024/01/15 03:50:41;;;;;;;16.45;4.78;;;4.20;99.90;;;;;;4900238;29;20055;-78
2024/01/15 03:53:06;;;;;;;20.23;3.45;;;4.10;99.90;;;;;;4884175;29;20147;-79
2024/01/15 03:55:32;;;;;;;16.10;2.53;;;4.00;99.90;;;;;;4916028;29;20059;-85
2024/01/15 03:57:58;;;;;;;17.98;2.78;;;3.90;99.90;;;;;;4915943;29;20048;-86
2024/01/15 04:00:24;;;;;;;14.30;3.15;;;3.80;99.90;;;;;;4915727;29;20095;-82
2024/01/15 04:02:49;;;;;;;14.25;2.92;;;3.60;99.90;;;;;;4915933;29;20136;-81
2024/01/15 04:05:15;;;;;;;14.70;2.40;;;3.70;99.90;;;;;;4918710;29;20129;-86
2024/01/15 04:07:41;;;;;;;16.65;4.93;;;3.60;99.90;;;;;;4882538;29;20060;-84
2024/01/15 04:10:07;;;;;;;13.65;2.70;;;3.60;99.90;;;;;;4898135;29;20236;-82
2024/01/15 04:12:33;;;;;;;9.18;2.50;;;3.50;99.90;;;;;;4915810;29;20048;-85
2024/01/15 04:14:58;;;;;;;13.02;3.67;;;3.50;99.90;;;;;;4915346;29;20503;-85
2024/01/15 04:17:24;;;;;;;16.10;3.22;;;3.60;99.90;;;;;;4915520;29;20150;-85
2024/01/15 04:19:50;;;;;;;17.58;2.67;;;3.40;99.90;;;;;;4899009;29;20210;-87
2024/01/15 04:22:15;;;;;;;38.75;3.85;;;3.30;99.90;;;;;;4915478;29;20136;-82
2024/01/15 04:24:41;;;;;;;13.52;1.35;;;3.30;99.90;;;;;;4915166;29;20048;-80
2024/01/15 04:27:07;;;;;;;5.53;1.38;;;3.40;99.90;;;;;;4915090;29;20083;-81
2024/01/15 04:29:33;;;;;;;17.10;2.72;;;3.50;99.90;;;;;;4915000;29;20044;-76
2024/01/15 04:31:59;;;;;;;9.60;1.50;;;3.50;99.90;;;;;;4914998;29;20055;-85
2024/01/15 04:34:24;;;;;;;15.25;2.85;;;3.50;99.90;;;;;;4914740;29;20100;-82
2024/01/15 04:36:50;;;;;;;12.68;2.40;;;3.50;99.90;;;;;;4897566;29;20063;-79
2024/01/15 04:39:16;;;;;;;17.80;3.92;;;3.60;99.90;;;;;;4914834;29;20127;-84
2024/01/15 04:41:41;;;;;;;19.50;3.17;;;3.70;99.90;;;;;;4915198;29;20164;-86
2024/01/15 04:44:07;;;;;;;20.25;4.20;;;3.70;99.90;;;;;;4915173;29;20088;-83
2024/01/15 04:46:33;;;;;;;14.15;2.72;;;3.80;99.90;;;;;;4897876;29;20119;-85
2024/01/15 04:48:58;;;;;;;24.98;4.50;;;3.80;99.90;;;;;;4898002;29;20374;-84
2024/01/15 04:51:24;;;;;;;8.15;2.40;;;3.70;99.90;;;;;;4882286;29;20160;-85
2024/01/15 04:53:50;;;;;;;13.95;2.55;;;3.70;99.90;;;;;;4915171;29;20044;-84
2024/01/15 04:56:15;;;;;;;11.68;2.30;;;3.70;99.90;;;;;;4914840;29;20066;-83
2024/01/15 04:58:41;;;;;;;19.83;3.22;;;3.60;99.90;;;;;;4915066;29;20055;-76
2024/01/15 05:01:08;;;;;;;27.25;4.72;;;3.70;99.90;;;;;;4918970;29;20127;-81
2024/01/15 05:03:33;;;;;;;20.58;3.55;;;3.60;99.90;;;;;;4918105;29;20056;-84
2024/01/15 05:05:59;;;;;;;24.55;3.08;;;3.60;99.90;;;;;;4917906;29;20067;-78
2024/01/15 05:08:25;;;;;;;12.05;2.55;;;3.60;99.90;;;;;;4918381;29;20063;-77
2024/01/15 05:10:50;;;;;;;29.25;4.18;;;3.60;99.90;;;;;;4918968;29;20080;-78
2024/01/15 05:13:16;;;;;;;20.88;3.25;;;3.50;99.90;;;;;;4901264;29;20103;-81
2024/01/15 05:15:42;;;;;;;18.33;2.95;;;3.60;99.90;;;;;;4901826;29;20404;-83
2024/01/15 05:18:08;;;;;;;18.30;2.60;;;3.60;99.90;;;;;;4901519;29;20055;-75
2024/01/15 05:20:34;;;;;;;10.75;2.92;;;3.60;99.90;;;;;;4918229;29;20480;-73
2024/01/15 05:23:00;;;;;;;20.42;5.45;;;3.60;99.90;;;;;;4901147;29;20115;-74
2024/01/15 05:25:26;;;;;;;12.00;2.35;;;3.70;99.90;;;;;;4901039;29;20055;-73
2024/01/15 05:27:51;;;;;;;16.60;3.80;;;3.60;99.90;;;;;;4901008;29;20060;-75
2024/01/15 05:30:17;;;;;;;21.15;3.25;;;3.70;99.90;;;;;;4918028;29;20187;-73
2024/01/15 05:32:43;;;;;;;16.90;3.80;;;3.80;99.90;;;;;;4885518;29;20512;-75
2024/01/15 05:35:09;;;;;;;14.23;4.15;;;3.70;99.90;;;;;;4900151;29;20063;-84
2024/01/15 05:37:35;;;;;;;24.50;3.35;;;3.70;99.90;;;;;;4918226;29;20139;-77
2024/01/15 05:40:00;;;;;;;18.15;2.95;;;3.50;99.90;;;;;;4900772;29;20131;-78
2024/01/15 05:42:26;;;;;;;29.42;3.65;;;3.40;99.90;;;;;;4901050;29;20496;-72
2024/01/15 05:44:52;;;;;;;18.63;2.83;;;3.30;99.90;;;;;;4917925;29;20060;-79
2024/01/15 05:47:18;;;;;;;15.18;3.45;;;3.30;99.90;;;;;;4869506;29;20052;-83
2024/01/15 05:49:44;;;;;;;16.35;2.28;;;3.30;99.90;;;;;;4917547;29;20512;-72
2024/01/15 05:52:10;;;;;;;9.77;2.08;;;3.20;99.90;;;;;;4917846;29;20139;-85
2024/01/15 05:54:35;;;;;;;11.70;2.17;;;3.20;99.90;;;;;;4917662;29;20063;-76
2024/01/15 05:57:01;;;;;;;18.65;4.20;;;3.30;99.90;;;;;;4900340;29;20417;-74
2024/01/15 05:59:28;;;;;;;15.52;3.03;;;3.20;99.90;;;;;;4917365;29;20135;-75
2024/01/15 06:01:53;;;;;;;18.00;3.78;;;3.30;99.90;;;;;;4917470;29;20497;-75
2024/01/15 06:04:19;;;;;;;20.15;2.92;;;3.30;99.90;;;;;;4900131;29;20067;-75
2024/01/15 06:06:45;;;;;;;16.90;2.88;;;3.30;99.90;;;;;;4917254;29;20139;-77
2024/01/15 06:09:10;;;;;;;16.40;3.38;;;3.40;99.90;;;;;;4917253;29;20075;-78
2024/01/15 06:11:36;;;;;;;7.00;1.73;;;3.20;99.90;;;;;;4916531;29;20055;-76
2024/01/15 06:14:02;;;;;;;11.57;3.15;;;3.00;99.90;;;;;;4917071;29;20127;-78
2024/01/15 06:16:28;;;;;;;18.35;2.92;;;2.90;99.90;;;;;;4899748;29;20052;-80
2024/01/15 06:18:54;;;;;;;17.75;2.35;;;2.80;99.90;;;;;;4917321;29;20052;-80
2024/01/15 06:21:20;;;;;;;18.58;3.80;;;2.80;99.90;;;;;;4916817;29;20052;-73
2024/01/15 06:23:46;;;;;;;19.00;3.10;;;2.90;99.90;;;;;;4916977;29;20138;-76
2024/01/15 06:26:12;;;;;;;15.18;3.97;;;3.00;99.90;;;;;;4916876;29;20163;-85
2024/01/15 06:28:38;;;;;;;16.98;5.50;;;3.10;99.90;;;;;;4917247;29;20589;-81
2024/01/15 06:31:04;;;;;;;20.88;2.15;;;3.20;99.90;;;;;;4899907;29;20054;-81
2024/01/15 06:33:29;;;;;;;16.25;3.90;;;3.20;99.90;;;;;;4899828;29;20048;-77
2024/01/15 06:35:56;;;;;;;11.98;3.25;;;3.10;99.90;;;;;;4899640;29;20052;-76
2024/01/15 06:38:23;;;;;;;15.40;2.40;;;3.10;99.90;;;;;;4899792;29;20556;-73
2024/01/15 06:40:48;;;;;;;13.10;2.88;;;3.00;99.90;;;;;;4900369;29;20056;-81
2024/01/15 06:43:21;;;;;;;11.68;1.52;;;3.00;99.90;;;;;;4917021;29;20054;-79
2024/01/15 06:46:06;;;;;;;11.90;2.03;;;2.90;99.90;;;;;;4914021;29;20056;-82
2024/01/15 06:48:32;;;;;;;12.70;1.80;;;2.80;99.90;;;;;;4913910;29;20104;-78
2024/01/15 06:50:58;;;;;;;10.88;1.75;;;2.60;99.90;;;;;;4914142;29;20060;-81
2024/01/15 06:53:24;;;;;;;7.70;1.23;;;2.50;99.90;;;;;;4913790;29;20060;-75
2024/01/15 06:55:51;;;;;;;6.53;1.15;;;2.50;99.90;;;;;;4898453;29;20058;-74
2024/01/15 06:58:16;;;;;;;7.53;1.25;;;2.50;99.90;;;;;;4913922;29;20493;-75
2024/01/15 07:00:42;;;;;;;12.68;2.92;;;2.50;99.90;;;;;;4898305;29;20051;-73
2024/01/15 07:03:08;;;;;;;14.48;2.90;;;2.40;99.90;;;;;;4898526;29;20063;-84
2024/01/15 07:05:33;;;;;;;9.02;1.90;;;2.40;99.90;;;;;;4914133;29;20044;-76
2024/01/15 07:07:59;;;;;;;8.73;1.30;;;2.40;99.90;;;;;;4898064;29;20056;-78
2024/01/15 07:10:26;;;;;;;8.25;1.90;;;2.30;99.90;;;;;;4897894;29;20060;-80
2024/01/15 07:12:51;;;;;;;9.98;1.98;;;2.20;99.90;;;;;;4913629;29;20468;-81
2024/01/15 07:15:17;;;;;;;7.38;1.42;;;2.20;99.90;;;;;;4913613;29;20058;-77
2024/01/15 07:17:43;;;;;;;16.92;3.28;;;2.20;99.90;;;;;;4915356;29;20060;-82
2024/01/15 07:20:09;;;;;;;11.77;2.65;;;2.30;99.90;;;;;;4915977;29;20381;-83
2024/01/15 07:22:37;;;;;;;19.85;2.13;;;2.30;99.90;;;;;;4915095;29;20052;-80
2024/01/15 07:25:04;;;;;;;17.02;1.70;;;2.40;99.90;;;;;;4916095;29;20043;-79
2024/01/15 07:27:31;;;;;;;7.72;2.03;;;2.50;99.90;;;;;;4899056;29;20139;-78
2024/01/15 07:29:58;;;;;;;9.82;2.10;;;2.50;99.90;;;;;;4915809;29;20119;-76
2024/01/15 07:32:23;;;;;;;15.57;1.98;;;2.50;99.90;;;;;;4916163;29;20070;-83
2024/01/15 07:34:49;;;;;;;8.63;2.10;;;2.50;99.90;;;;;;4898631;29;20044;-80
2024/01/15 07:37:15;;;;;;;12.90;2.58;;;2.60;99.90;;;;;;4915969;29;20087;-74
2024/01/15 07:39:41;;;;;;;14.30;3.08;;;2.60;99.90;;;;;;4916082;29;20195;-78
2024/01/15 07:42:07;;;;;;;12.43;2.33;;;2.60;99.90;;;;;;4915804;29;20054;-74
2024/01/15 07:44:33;;;;;;;14.93;2.92;;;2.80;99.90;;;;;;4915519;29;20059;-81
2024/01/15 07:46:59;;;;;;;14.70;3.03;;;2.90;99.90;;;;;;4915749;29;20143;-73
2024/01/15 07:49:25;;;;;;;14.23;2.72;;;2.90;99.90;;;;;;4915621;29;20135;-83
2024/01/15 07:51:51;;;;;;;21.10;3.55;;;2.80;99.90;;;;;;4915473;29;20139;-77
2024/01/15 07:54:16;;;;;;;11.48;2.92;;;2.70;99.90;;;;;;4915406;29;20579;-76
2024/01/15 07:57:04;;;;;;;13.68;3.42;;;2.70;99.90;;;;;;4898353;29;20091;-75
2024/01/15 07:59:30;;;;;;;16.65;3.13;;;2.70;99.90;;;;;;4898031;29;20508;-73
2024/01/15 08:01:56;;;;;;;19.00;2.65;;;2.70;99.90;;;;;;4915441;29;20059;-78
2024/01/15 08:04:22;;;;;;;19.90;2.47;;;2.80;99.90;;;;;;4882696;29;20678;-79
2024/01/15 08:06:47;;;;;;;21.00;4.68;;;2.80;99.90;;;;;;4915269;29;20079;-81
2024/01/15 08:09:13;;;;;;;37.40;8.20;;;2.80;99.90;;;;;;4898258;29;20052;-84
2024/01/15 08:11:41;;;;;;;13.00;3.47;;;2.80;99.90;;;;;;4915081;29;20413;-84
2024/01/15 08:14:07;;;;;;;15.05;2.28;;;2.80;99.90;;;;;;4915015;29;20568;-76
2024/01/15 08:16:33;;;;;;;14.73;2.88;;;2.80;99.90;;;;;;4915129;29;20075;-80
2024/01/15 08:18:59;;;;;;;20.67;3.25;;;2.70;99.90;;;;;;4898021;29;20415;-83
2024/01/15 08:21:24;;;;;;;13.40;2.45;;;2.70;99.90;;;;;;4915233;29;20476;-80
2024/01/15 08:23:50;;;;;;;14.85;2.17;;;2.70;99.90;;;;;;4882831;29;20119;-81
2024/01/15 08:26:16;;;;;;;12.90;2.45;;;2.60;99.90;;;;;;4898447;29;20438;-79
2024/01/15 08:28:42;;;;;;;19.27;2.17;;;2.60;99.90;;;;;;4915253;29;20051;-81
2024/01/15 08:31:07;;;;;;;21.65;1.70;;;2.50;99.90;;;;;;4898420;29;20056;-78
2024/01/15 08:33:33;;;;;;;9.85;2.20;;;2.50;99.90;;;;;;4915402;29;20135;-82
2024/01/15 08:35:59;;;;;;;14.52;2.00;;;2.50;99.90;;;;;;4898296;29;20055;-76
2024/01/15 08:38:25;;;;;;;15.02;2.40;;;2.50;99.90;;;;;;4915010;29;20516;-83
2024/01/15 08:40:53;;;;;;;16.17;3.90;;;2.50;99.90;;;;;;4882610;29;20044;-79
2024/01/15 08:43:19;;;;;;;17.67;3.85;;;2.40;99.90;;;;;;4914573;29;20059;-78
2024/01/15 08:45:45;;;;;;;20.40;3.72;;;2.50;99.90;;;;;;4915057;29;20131;-82
2024/01/15 08:48:10;;;;;;;10.63;1.90;;;2.50;99.90;;;;;;4897844;29;20064;-76
2024/01/15 08:50:36;;;;;;;12.95;1.80;;;2.60;99.90;;;;;;4914590;29;20052;-82
2024/01/15 08:53:02;;;;;;;12.57;2.10;;;2.80;99.90;;;;;;4914790;29;20148;-79
2024/01/15 08:55:28;;;;;;;13.15;1.55;;;2.80;99.90;;;;;;4914743;29;20052;-79
2024/01/15 08:57:54;;;;;;;9.20;1.92;;;2.90;99.90;;;;;;4881877;29;20126;-82
2024/01/15 09:00:20;;;;;;;8.70;1.27;;;2.80;99.90;;;;;;4897447;29;20060;-76
2024/01/15 09:02:45;;;;;;;7.97;1.42;;;2.70;99.90;;;;;;4914671;29;20163;-81
2024/01/15 09:05:11;;;;;;;8.38;1.45;;;2.70;99.90;;;;;;4913947;29;20052;-83
2024/01/15 09:07:37;;;;;;;10.15;1.67;;;2.70;99.90;;;;;;4897544;29;20210;-78
2024/01/15 09:10:03;;;;;;;13.32;1.70;;;2.80;99.90;;;;;;4897387;29;20449;-77
2024/01/15 09:12:29;;;;;;;17.50;3.22;;;2.80;99.90;;;;;;4914502;29;20509;-74
2024/01/15 09:14:55;;;;;;;17.08;2.50;;;2.90;99.90;;;;;;4897481;29;20159;-76
2024/01/15 09:17:23;;;;;;;23.65;2.97;;;3.00;99.90;;;;;;4881713;29;20497;-76
2024/01/15 09:19:49;;;;;;;15.82;2.33;;;3.00;99.90;;;;;;4914578;29;20183;-81
2024/01/15 09:22:18;;;;;;;14.07;1.70;;;3.20;99.90;;;;;;4914507;29;20048;-77
2024/01/15 09:24:44;;;;;;;17.85;2.33;;;3.40;99.90;;;;;;4881601;29;20052;-80
2024/01/15 09:27:10;;;;;;;7.95;2.55;;;3.50;99.90;;;;;;4914416;29;20408;-83
2024/01/15 09:29:41;;;;;;;10.23;1.50;;;3.30;99.90;;;;;;4914816;29;20048;-80
2024/01/15 09:32:07;;;;;;;8.45;1.10;;;3.10;99.90;;;;;;4914411;29;20051;-72
2024/01/15 09:34:34;;;;;;;8.75;1.00;;;3.00;99.90;;;;;;4896950;29;20520;-77
2024/01/15 09:36:59;;;;;;;14.63;1.60;;;2.90;99.90;;;;;;4914376;29;20052;-79
2024/01/15 09:39:27;;;;;;;25.98;2.55;;;2.90;99.90;;;;;;4914127;29;20481;-72
2024/01/15 09:41:54;;;;;;;10.60;2.08;;;2.90;99.90;;;;;;4914339;29;20059;-80
2024/01/15 09:44:20;;;;;;;9.65;2.15;;;2.80;99.90;;;;;;4897485;29;20052;-83
2024/01/15 09:46:50;;;;;;;2.58;0.70;;;2.60;99.90;;;;;;4898997;29;20056;-83
2024/01/15 09:49:16;;;;;;;12.30;1.33;;;2.50;99.90;;;;;;4917740;29;20052;-80
2024/01/15 09:51:42;;;;;;;10.82;1.23;;;2.60;99.90;;;;;;4900974;29;20052;-84
2024/01/15 09:54:08;;;;;;;6.82;0.95;;;2.60;99.90;;;;;;4900451;29;20052;-83
2024/01/15 09:56:35;;;;;;;8.48;1.10;;;2.70;99.90;;;;;;4917465;29;20051;-83
2024/01/15 09:59:01;;;;;;;9.75;2.90;;;2.80;99.90;;;;;;4900493;29;20052;-77
2024/01/15 10:01:28;;;;;;;11.68;0.93;;;2.90;99.90;;;;;;4917378;29;20052;-84
2024/01/15 10:03:55;;;;;;;4.93;1.00;;;3.00;99.90;;;;;;4900087;29;20138;-82
2024/01/15 10:06:22;;;;;;;10.90;2.08;;;3.00;99.90;;;;;;4917599;29;20048;-82
2024/01/15 10:08:49;;;;;;;8.45;1.60;;;3.10;99.90;;;;;;4900171;29;20063;-78
2024/01/15 10:11:16;;;;;;;6.15;2.33;;;3.30;99.90;;;;;;4917465;29;20080;-80
2024/01/15 10:13:44;;;;;;;11.57;2.25;;;3.60;99.90;;;;;;4900472;29;20054;-79
2024/01/15 10:16:10;;;;;;;12.32;1.50;;;3.80;99.90;;;;;;4900150;29;20063;-83
2024/01/15 10:18:36;;;;;;;11.48;1.42;;;3.80;99.90;;;;;;4917064;29;20107;-76
2024/01/15 10:21:03;;;;;;;6.65;1.23;;;3.90;99.90;;;;;;4917532;29;20116;-83
2024/01/15 10:23:31;;;;;;;7.70;1.65;;;3.90;99.90;;;;;;4900101;29;20143;-82
2024/01/15 10:25:58;;;;;;;11.40;2.88;;;3.70;99.90;;;;;;4917228;29;20453;-80
2024/01/15 10:28:26;;;;;;;12.95;1.60;;;3.60;99.90;;;;;;4917118;29;20052;-84
2024/01/15 10:30:56;;;;;;;10.60;1.27;;;3.40;99.90;;;;;;4917195;29;20131;-79
2024/01/15 10:33:26;;;;;;;12.85;1.90;;;3.40;99.90;;;;;;4916924;29;20215;-83
2024/01/15 10:36:00;;;;;;;7.63;1.80;;;3.50;99.90;;;;;;4916772;29;20044;-82
2024/01/15 10:38:25;;;;;;;10.13;1.52;;;3.60;99.90;;;;;;4917020;29;20528;-83
2024/01/15 10:40:55;;;;;;;8.25;1.08;;;3.50;99.90;;;;;;4916795;29;20075;-77
2024/01/15 10:43:22;;;;;;;8.15;1.20;;;3.30;99.90;;;;;;4916806;29;20096;-73
2024/01/15 10:45:51;;;;;;;4.85;0.88;;;3.20;99.90;;;;;;4899530;29;20078;-80
2024/01/15 10:48:19;;;;;;;6.80;1.40;;;3.10;99.90;;;;;;4916904;29;20047;-83
2024/01/15 10:50:46;;;;;;;8.48;1.63;;;3.00;99.90;;;;;;4916588;29;20091;-76
2024/01/15 10:53:13;;;;;;;11.88;1.65;;;3.00;99.90;;;;;;4916635;29;20150;-80
2024/01/15 10:55:40;;;;;;;9.13;1.35;;;2.90;99.90;;;;;;4916176;29;20064;-75
2024/01/15 10:58:07;;;;;;;7.82;1.80;;;2.90;99.90;;;;;;4868098;29;20386;-79
2024/01/15 11:00:37;;;;;;;8.43;1.08;;;3.00;99.90;;;;;;4916451;29;20095;-75
2024/01/15 11:03:07;;;;;;;9.20;1.30;;;3.00;99.90;;;;;;4883809;29;20052;-78
2024/01/15 11:05:43;;;;;;;7.32;1.63;;;3.00;99.90;;;;;;4899121;29;20048;-80
2024/01/15 11:08:09;;;;;;;5.32;1.30;;;3.10;99.90;;;;;;4899029;29;20064;-78
2024/01/15 11:10:52;;;;;;;6.57;1.40;;;3.20;99.90;;;;;;4883821;29;20071;-75
2024/01/15 11:13:46;;;;;;;10.00;2.45;;;3.20;99.90;;;;;;4916579;29;20091;-78
2024/01/15 11:16:13;;;;;;;14.95;2.38;;;3.20;99.90;;;;;;4913348;29;20583;-80
2024/01/15 11:19:00;;;;;;;7.88;1.77;;;3.30;99.90;;;;;;4916235;29;20101;-76
2024/01/15 11:21:27;;;;;;;11.68;1.38;;;3.00;99.90;;;;;;4916000;29;20420;-75
2024/01/15 11:23:57;;;;;;;13.90;2.55;;;2.80;99.90;;;;;;4915691;29;20512;-79
2024/01/15 11:26:46;;;;;;;11.88;1.95;;;2.70;99.90;;;;;;4916137;29;20392;-74
2024/01/15 11:29:27;;;;;;;16.42;2.63;;;2.70;99.90;;;;;;4915990;29;20438;-76
2024/01/15 11:32:09;;;;;;;16.90;3.10;;;2.80;99.90;;;;;;4915788;29;20100;-82
2024/01/15 11:34:51;;;;;;;10.48;1.58;;;2.90;99.90;;;;;;4915710;29;20404;-77
2024/01/15 11:37:18;;;;;;;5.28;1.88;;;2.90;99.90;;;;;;4915947;29;20139;-81
2024/01/15 11:39:44;;;;;;;7.80;1.27;;;3.00;99.90;;;;;;4883029;29;20147;-79
2024/01/15 11:42:11;;;;;;;13.18;1.38;;;3.10;99.90;;;;;;4883068;29;20101;-80
2024/01/15 11:44:40;;;;;;;12.55;2.42;;;3.10;99.90;;;;;;4916013;29;20058;-79
2024/01/15 11:47:09;;;;;;;7.78;2.92;;;3.20;99.90;;;;;;4916169;29;20107;-81
2024/01/15 11:49:50;;;;;;;20.65;2.65;;;3.30;99.90;;;;;;4899073;29;20056;-81
2024/01/15 11:52:18;;;;;;;17.98;1.95;;;3.40;99.90;;;;;;4915676;29;20056;-77
2024/01/15 11:55:11;;;;;;;8.75;1.33;;;3.40;99.90;;;;;;4915660;29;20394;-79
2024/01/15 11:57:47;;;;;;;9.55;1.77;;;3.50;99.90;;;;;;4903406;29;20060;-74
2024/01/15 12:00:13;;;;;;;9.15;1.63;;;3.50;99.90;;;;;;4915761;29;20052;-79
2024/01/15 12:02:44;;;;;;;11.60;2.38;;;3.60;99.90;;;;;;4915492;29;20056;-73
2024/01/15 12:05:12;;;;;;;13.60;2.92;;;3.70;99.90;;;;;;4898042;29;20067;-74
2024/01/15 12:07:39;;;;;;;11.48;2.13;;;3.80;99.90;;;;;;4915203;29;20532;-74
2024/01/15 12:10:10;;;;;;;7.57;1.65;;;4.00;99.90;;;;;;4914647;29;20044;-73
2024/01/15 12:12:54;;;;;;;7.93;1.35;;;4.00;99.90;;;;;;4915303;29;20055;-73
2024/01/15 12:15:20;;;;;;;14.13;1.63;;;4.00;99.90;;;;;;4914943;29;20052;-73
2024/01/15 12:17:47;;;;;;;10.07;2.97;;;4.00;99.90;;;;;;4897905;29;20060;-76
2024/01/15 12:20:13;;;;;;;9.98;1.63;;;4.00;99.90;;;;;;4898082;29;20496;-75
2024/01/15 12:22:39;;;;;;;13.00;2.92;;;4.00;99.90;;;;;;4915117;29;20104;-74
2024/01/15 12:25:05;;;;;;;16.52;2.33;;;4.10;99.90;;;;;;4897995;29;20054;-77
2024/01/15 12:27:31;;;;;;;10.23;1.80;;;4.10;99.90;;;;;;4915350;29;20056;-73
2024/01/15 12:29:58;;;;;;;15.88;2.10;;;4.10;99.90;;;;;;4914994;29;20099;-77
2024/01/15 12:32:25;;;;;;;19.50;2.53;;;4.10;99.90;;;;;;4914682;29;20513;-73
2024/01/15 12:34:51;;;;;;;13.75;2.05;;;4.10;99.90;;;;;;4914930;29;20452;-79
2024/01/15 12:37:20;;;;;;;19.70;3.65;;;4.10;99.90;;;;;;4914681;29;20118;-74
2024/01/15 12:39:46;;;;;;;17.85;3.58;;;4.10;99.90;;;;;;4914647;29;20056;-78
2024/01/15 12:42:15;;;;;;;19.00;3.58;;;4.10;99.90;;;;;;4914988;29;20048;-76
2024/01/15 12:44:41;;;;;;;21.60;3.63;;;4.20;99.90;;;;;;4915048;29;20123;-77
2024/01/15 12:47:06;;;;;;;12.27;2.22;;;4.40;99.90;;;;;;4897862;29;20047;-73